sensor_id;sensor_type;location;lat;lon;timestamp;temperature;humidity
32640;DHT22;19049;52.524;11.468;2023-11-18T00:00:37;4.00;99.90
32640;DHT22;19049;52.524;11.468;2023-11-18T00:03:03;4.10;99.90
32640;DHT22;19049;52.524;11.468;2023-11-18T00:05:29;4.10;99.90
32640;DHT22;19049;52.524;11.468;2023-11-18T00:07:54;4.10;99.90
32640;DHT22;19049;52.524;11.468;2023-11-18T00:10:20;4.10;99.90
32640;DHT22;19049;52.524;11.468;2023-11-18T00:12:46;4.10;99.90
32640;DHT22;19049;52.524;11.468;2023-11-18T00:15:12;4.20;99.90
32640;DHT22;19049;52.524;11.468;2023-11-18T00:17:38;4.10;99.90
32640;DHT22;19049;52.524;11.468;2023-11-18T00:20:04;4.20;99.90
32640;DHT22;19049;52.524;11.468;2023-11-18T00:22:35;4.20;99.90
32640;DHT22;19049;52.524;11.468;2023-11-18T00:25:02;4.30;99.90
32640;DHT22;19049;52.524;11.468;2023-11-18T00:27:30;4.30;99.90
32640;DHT22;19049;52.524;11.468;2023-11-18T00:29:56;4.30;99.90
32640;DHT22;19049;52.524;11.468;2023-11-18T00:32:22;4.30;99.90
32640;DHT22;19049;52.524;11.468;2023-11-18T00:34:47;4.40;99.90
32640;DHT22;19049;52.524;11.468;2023-11-18T00:37:13;4.40;99.90
32640;DHT22;19049;52.524;11.468;2023-11-18T00:39:39;4.40;99.90
32640;DHT22;19049;52.524;11.468;2023-11-18T00:42:05;4.50;99.90
32640;DHT22;19049;52.524;11.468;2023-11-18T00:44:31;4.50;99.90
32640;DHT22;19049;52.524;11.468;2023-11-18T00:46:56;4.50;99.90
32640;DHT22;19049;52.524;11.468;2023-11-18T00:49:23;4.50;99.90
32640;DHT22;19049;52.524;11.468;2023-11-18T00:51:49;4.50;99.90
32640;DHT22;19049;52.524;11.468;2023-11-18T00:54:14;4.60;99.90
32640;DHT22;19049;52.524;11.468;2023-11-18T00:56:40;4.60;99.90
32640;DHT22;19049;52.524;11.468;2023-11-18T00:59:06;4.60;99.90
32640;DHT22;19049;52.524;11.468;2023-11-18T01:01:32;4.60;99.90
32640;DHT22;19049;52.524;11.468;2023-11-18T01:03:57;4.70;99.90
32640;DHT22;19049;52.524;11.468;2023-11-18T01:06:26;4.70;99.90
32640;DHT22;19049;52.524;11.468;2023-11-18T01:08:52;4.70;99.90
32640;DHT22;19049;52.524;11.468;2023-11-18T01:11:18;4.70;99.90
32640;DHT22;19049;52.524;11.468;2023-11-18T01:13:48;4.70;99.90
32640;DHT22;19049;52.524;11.468;2023-11-18T01:16:14;4.70;99.90
32640;DHT22;19049;52.524;11.468;2023-11-18T01:18:41;4.70;99.90
32640;DHT22;19049;52.524;11.468;2023-11-18T01:21:06;4.70;99.90
32640;DHT22;19049;52.524;11.468;2023-11-18T01:23:35;4.80;99.90
32640;DHT22;19049;52.524;11.468;2023-11-18T01:26:01;4.70;99.90
32640;DHT22;19049;52.524;11.468;2023-11-18T01:28:33;4.70;99.90
32640;DHT22;19049;52.524;11.468;2023-11-18T01:31:03;4.70;99.90
32640;DHT22;19049;52.524;11.468;2023-11-18T01:33:29;4.60;99.90
32640;DHT22;19049;52.524;11.468;2023-11-18T01:35:55;4.60;99.90
32640;DHT22;19049;52.524;11.468;2023-11-18T01:38:21;4.60;99.90
32640;DHT22;19049;52.524;11.468;2023-11-18T01:40:47;4.60;99.90
32640;DHT22;19049;52.524;11.468;2023-11-18T01:43:12;4.50;99.90
32640;DHT22;19049;52.524;11.468;2023-11-18T01:45:40;4.50;99.90
32640;DHT22;19049;52.524;11.468;2023-11-18T01:48:07;4.50;99.90
32640;DHT22;19049;52.524;11.468;2023-11-18T01:50:36;4.50;99.90
32640;DHT22;19049;52.524;11.468;2023-11-18T01:53:03;4.50;99.90
32640;DHT22;19049;52.524;11.468;2023-11-18T01:55:29;4.50;99.90
32640;DHT22;19049;52.524;11.468;2023-11-18T01:57:55;4.40;99.90
32640;DHT22;19049;52.524;11.468;2023-11-18T02:00:22;4.40;99.90
32640;DHT22;19049;52.524;11.468;2023-11-18T02:02:48;4.40;99.90
32640;DHT22;19049;52.524;11.468;2023-11-18T02:05:15;4.40;99.90
32640;DHT22;19049;52.524;11.468;2023-11-18T02:07:42;4.40;99.90
32640;DHT22;19049;52.524;11.468;2023-11-18T02:10:09;4.40;99.90
32640;DHT22;19049;52.524;11.468;2023-11-18T02:13:00;4.40;99.90
32640;DHT22;19049;52.524;11.468;2023-11-18T02:15:29;4.40;99.90
32640;DHT22;19049;52.524;11.468;2023-11-18T02:17:57;4.40;99.90
32640;DHT22;19049;52.524;11.468;2023-11-18T02:20:23;4.40;99.90
32640;DHT22;19049;52.524;11.468;2023-11-18T02:22:50;4.40;99.90
32640;DHT22;19049;52.524;11.468;2023-11-18T02:25:17;4.30;99.90
32640;DHT22;19049;52.524;11.468;2023-11-18T02:27:44;4.40;99.90
32640;DHT22;19049;52.524;11.468;2023-11-18T02:30:11;4.40;99.90
32640;DHT22;19049;52.524;11.468;2023-11-18T02:33:01;4.40;99.90
32640;DHT22;19049;52.524;11.468;2023-11-18T02:38:19;4.40;99.90
32640;DHT22;19049;52.524;11.468;2023-11-18T02:40:51;4.40;99.90
32640;DHT22;19049;52.524;11.468;2023-11-18T02:43:19;4.40;99.90
32640;DHT22;19049;52.524;11.468;2023-11-18T02:45:45;4.40;99.90
32640;DHT22;19049;52.524;11.468;2023-11-18T02:48:12;4.30;99.90
32640;DHT22;19049;52.524;11.468;2023-11-18T02:50:37;4.40;99.90
32640;DHT22;19049;52.524;11.468;2023-11-18T02:53:05;4.40;99.90
32640;DHT22;19049;52.524;11.468;2023-11-18T02:55:31;4.30;99.90
32640;DHT22;19049;52.524;11.468;2023-11-18T02:57:56;4.30;99.90
32640;DHT22;19049;52.524;11.468;2023-11-18T03:00:22;4.30;99.90
32640;DHT22;19049;52.524;11.468;2023-11-18T03:02:52;4.20;99.90
32640;DHT22;19049;52.524;11.468;2023-11-18T03:05:18;4.20;99.90
32640;DHT22;19049;52.524;11.468;2023-11-18T03:07:44;4.10;99.90
32640;DHT22;19049;52.524;11.468;2023-11-18T03:10:13;4.10;99.90
32640;DHT22;19049;52.524;11.468;2023-11-18T03:12:47;4.00;99.90
32640;DHT22;19049;52.524;11.468;2023-11-18T03:15:13;4.00;99.90
32640;DHT22;19049;52.524;11.468;2023-11-18T03:17:38;3.90;99.90
32640;DHT22;19049;52.524;11.468;2023-11-18T03:20:05;3.90;99.90
32640;DHT22;19049;52.524;11.468;2023-11-18T03:22:37;3.90;99.90
32640;DHT22;19049;52.524;11.468;2023-11-18T03:25:03;3.90;99.90
32640;DHT22;19049;52.524;11.468;2023-11-18T03:27:31;3.90;99.90
32640;DHT22;19049;52.524;11.468;2023-11-18T03:29:56;3.90;99.90
32640;DHT22;19049;52.524;11.468;2023-11-18T03:32:22;3.90;99.90
32640;DHT22;19049;52.524;11.468;2023-11-18T03:34:48;4.00;99.90
32640;DHT22;19049;52.524;11.468;2023-11-18T03:37:13;4.00;99.90
32640;DHT22;19049;52.524;11.468;2023-11-18T03:39:39;4.00;99.90
32640;DHT22;19049;52.524;11.468;2023-11-18T03:42:04;4.00;99.90
32640;DHT22;19049;52.524;11.468;2023-11-18T03:44:30;4.10;99.90
32640;DHT22;19049;52.524;11.468;2023-11-18T03:46:56;4.10;99.90
32640;DHT22;19049;52.524;11.468;2023-11-18T03:49:21;4.10;99.90
32640;DHT22;19049;52.524;11.468;2023-11-18T03:51:47;4.20;99.90
32640;DHT22;19049;52.524;11.468;2023-11-18T03:54:13;4.30;99.90
32640;DHT22;19049;52.524;11.468;2023-11-18T03:56:39;4.20;99.90
32640;DHT22;19049;52.524;11.468;2023-11-18T03:59:05;4.30;99.90
32640;DHT22;19049;52.524;11.468;2023-11-18T04:01:30;4.30;99.90
32640;DHT22;19049;52.524;11.468;2023-11-18T04:03:56;4.30;99.90
32640;DHT22;19049;52.524;11.468;2023-11-18T04:06:22;4.40;99.90
32640;DHT22;19049;52.524;11.468;2023-11-18T04:08:50;4.40;99.90
32640;DHT22;19049;52.524;11.468;2023-11-18T04:11:16;4.40;99.90
32640;DHT22;19049;52.524;11.468;2023-11-18T04:13:41;4.50;99.90
32640;DHT22;19049;52.524;11.468;2023-11-18T04:16:16;4.50;99.90
32640;DHT22;19049;52.524;11.468;2023-11-18T04:18:43;4.50;99.90
32640;DHT22;19049;52.524;11.468;2023-11-18T04:21:10;4.50;99.90
32640;DHT22;19049;52.524;11.468;2023-11-18T04:23:42;4.60;99.90
32640;DHT22;19049;52.524;11.468;2023-11-18T04:26:09;4.60;99.90
32640;DHT22;19049;52.524;11.468;2023-11-18T04:28:35;4.60;99.90
32640;DHT22;19049;52.524;11.468;2023-11-18T04:31:02;4.60;99.90
32640;DHT22;19049;52.524;11.468;2023-11-18T04:33:28;4.60;99.90
32640;DHT22;19049;52.524;11.468;2023-11-18T04:35:57;4.60;99.90
32640;DHT22;19049;52.524;11.468;2023-11-18T04:38:23;4.60;99.90
32640;DHT22;19049;52.524;11.468;2023-11-18T04:40:53;4.70;99.90
32640;DHT22;19049;52.524;11.468;2023-11-18T04:43:20;4.70;99.90
32640;DHT22;19049;52.524;11.468;2023-11-18T04:45:46;4.70;99.90
32640;DHT22;19049;52.524;11.468;2023-11-18T04:48:12;4.70;99.90
32640;DHT22;19049;52.524;11.468;2023-11-18T04:50:43;4.70;99.90
32640;DHT22;19049;52.524;11.468;2023-11-18T04:53:09;4.80;99.90
32640;DHT22;19049;52.524;11.468;2023-11-18T04:55:37;4.80;99.90
32640;DHT22;19049;52.524;11.468;2023-11-18T04:58:02;4.80;99.90
32640;DHT22;19049;52.524;11.468;2023-11-18T05:00:30;4.80;99.90
32640;DHT22;19049;52.524;11.468;2023-11-18T05:02:57;4.80;99.90
32640;DHT22;19049;52.524;11.468;2023-11-18T05:05:23;4.80;99.90
32640;DHT22;19049;52.524;11.468;2023-11-18T05:07:48;4.80;99.90
32640;DHT22;19049;52.524;11.468;2023-11-18T05:10:14;4.80;99.90
32640;DHT22;19049;52.524;11.468;2023-11-18T05:12:40;4.80;99.90
32640;DHT22;19049;52.524;11.468;2023-11-18T05:15:06;4.80;99.90
32640;DHT22;19049;52.524;11.468;2023-11-18T05:17:39;4.90;99.90
32640;DHT22;19049;52.524;11.468;2023-11-18T05:20:05;4.90;99.90
32640;DHT22;19049;52.524;11.468;2023-11-18T05:22:34;4.90;99.90
32640;DHT22;19049;52.524;11.468;2023-11-18T05:25:05;4.90;99.90
32640;DHT22;19049;52.524;11.468;2023-11-18T05:27:31;4.90;99.90
32640;DHT22;19049;52.524;11.468;2023-11-18T05:29:57;4.90;99.90
32640;DHT22;19049;52.524;11.468;2023-11-18T05:32:27;4.90;99.90
32640;DHT22;19049;52.524;11.468;2023-11-18T05:34:53;4.90;99.90
32640;DHT22;19049;52.524;11.468;2023-11-18T05:37:20;4.90;99.90
32640;DHT22;19049;52.524;11.468;2023-11-18T05:39:46;4.80;99.90
32640;DHT22;19049;52.524;11.468;2023-11-18T05:42:12;4.90;99.90
32640;DHT22;19049;52.524;11.468;2023-11-18T05:44:38;4.90;99.90
32640;DHT22;19049;52.524;11.468;2023-11-18T05:47:05;4.90;99.90
32640;DHT22;19049;52.524;11.468;2023-11-18T05:54:43;4.90;99.90
32640;DHT22;19049;52.524;11.468;2023-11-18T05:57:08;4.90;99.90
32640;DHT22;19049;52.524;11.468;2023-11-18T05:59:34;5.00;99.90
32640;DHT22;19049;52.524;11.468;2023-11-18T06:01:59;5.00;99.90
32640;DHT22;19049;52.524;11.468;2023-11-18T06:04:25;5.00;99.90
32640;DHT22;19049;52.524;11.468;2023-11-18T06:06:51;5.00;99.90
32640;DHT22;19049;52.524;11.468;2023-11-18T06:09:17;5.00;99.90
32640;DHT22;19049;52.524;11.468;2023-11-18T06:11:51;5.00;99.90
32640;DHT22;19049;52.524;11.468;2023-11-18T06:14:19;5.10;99.90
32640;DHT22;19049;52.524;11.468;2023-11-18T06:16:45;5.10;99.90
32640;DHT22;19049;52.524;11.468;2023-11-18T06:19:13;5.10;99.90
32640;DHT22;19049;52.524;11.468;2023-11-18T06:21:40;5.10;99.90
32640;DHT22;19049;52.524;11.468;2023-11-18T06:24:06;5.10;99.90
32640;DHT22;19049;52.524;11.468;2023-11-18T06:26:32;5.10;99.90
32640;DHT22;19049;52.524;11.468;2023-11-18T06:29:01;5.10;99.90
32640;DHT22;19049;52.524;11.468;2023-11-18T06:31:27;5.10;99.90
32640;DHT22;19049;52.524;11.468;2023-11-18T06:33:55;5.10;99.90
32640;DHT22;19049;52.524;11.468;2023-11-18T06:36:21;5.10;99.90
32640;DHT22;19049;52.524;11.468;2023-11-18T06:38:49;5.10;99.90
32640;DHT22;19049;52.524;11.468;2023-11-18T06:41:16;5.10;99.90
32640;DHT22;19049;52.524;11.468;2023-11-18T06:43:44;5.20;99.90
32640;DHT22;19049;52.524;11.468;2023-11-18T06:46:28;5.20;99.90
32640;DHT22;19049;52.524;11.468;2023-11-18T06:49:02;5.20;99.90
32640;DHT22;19049;52.524;11.468;2023-11-18T06:51:31;5.20;99.90
32640;DHT22;19049;52.524;11.468;2023-11-18T06:54:00;5.20;99.90
32640;DHT22;19049;52.524;11.468;2023-11-18T06:56:28;5.20;99.90
32640;DHT22;19049;52.524;11.468;2023-11-18T06:58:54;5.20;99.90
32640;DHT22;19049;52.524;11.468;2023-11-18T07:01:20;5.10;99.90
32640;DHT22;19049;52.524;11.468;2023-11-18T07:03:47;5.10;99.90
32640;DHT22;19049;52.524;11.468;2023-11-18T07:06:19;5.10;99.90
32640;DHT22;19049;52.524;11.468;2023-11-18T07:08:51;5.10;99.90
32640;DHT22;19049;52.524;11.468;2023-11-18T07:11:18;5.00;99.90
32640;DHT22;19049;52.524;11.468;2023-11-18T07:13:44;5.00;99.90
32640;DHT22;19049;52.524;11.468;2023-11-18T07:16:10;4.90;99.90
32640;DHT22;19049;52.524;11.468;2023-11-18T07:18:37;4.90;99.90
32640;DHT22;19049;52.524;11.468;2023-11-18T07:21:04;4.80;99.90
32640;DHT22;19049;52.524;11.468;2023-11-18T07:23:31;4.80;99.90
32640;DHT22;19049;52.524;11.468;2023-11-18T07:25:57;4.80;99.90
32640;DHT22;19049;52.524;11.468;2023-11-18T07:28:23;4.80;99.90
32640;DHT22;19049;52.524;11.468;2023-11-18T07:30:49;4.70;99.90
32640;DHT22;19049;52.524;11.468;2023-11-18T07:33:16;4.70;99.90
32640;DHT22;19049;52.524;11.468;2023-11-18T07:35:42;4.70;99.90
32640;DHT22;19049;52.524;11.468;2023-11-18T07:38:08;4.70;99.90
32640;DHT22;19049;52.524;11.468;2023-11-18T07:40:36;4.70;99.90
32640;DHT22;19049;52.524;11.468;2023-11-18T07:43:03;4.60;99.90
32640;DHT22;19049;52.524;11.468;2023-11-18T07:45:35;4.60;99.90
32640;DHT22;19049;52.524;11.468;2023-11-18T07:48:04;4.60;99.90
32640;DHT22;19049;52.524;11.468;2023-11-18T07:50:33;4.70;99.90
32640;DHT22;19049;52.524;11.468;2023-11-18T07:52:59;4.70;99.90
32640;DHT22;19049;52.524;11.468;2023-11-18T07:55:25;4.70;99.90
32640;DHT22;19049;52.524;11.468;2023-11-18T07:57:50;4.80;99.90
32640;DHT22;19049;52.524;11.468;2023-11-18T08:00:16;4.90;99.90
32640;DHT22;19049;52.524;11.468;2023-11-18T08:02:43;5.10;99.90
32640;DHT22;19049;52.524;11.468;2023-11-18T08:05:10;5.30;99.90
32640;DHT22;19049;52.524;11.468;2023-11-18T08:07:40;5.40;99.90
32640;DHT22;19049;52.524;11.468;2023-11-18T08:10:07;5.60;99.90
32640;DHT22;19049;52.524;11.468;2023-11-18T08:12:38;5.70;99.90
32640;DHT22;19049;52.524;11.468;2023-11-18T08:15:05;5.90;99.90
32640;DHT22;19049;52.524;11.468;2023-11-18T08:17:34;6.00;99.90
32640;DHT22;19049;52.524;11.468;2023-11-18T08:20:00;6.20;99.90
32640;DHT22;19049;52.524;11.468;2023-11-18T08:22:26;6.50;99.90
32640;DHT22;19049;52.524;11.468;2023-11-18T08:24:51;6.70;99.90
32640;DHT22;19049;52.524;11.468;2023-11-18T08:27:17;6.90;99.90
32640;DHT22;19049;52.524;11.468;2023-11-18T08:29:43;7.00;99.90
32640;DHT22;19049;52.524;11.468;2023-11-18T08:32:09;7.10;99.90
32640;DHT22;19049;52.524;11.468;2023-11-18T08:34:38;7.20;99.90
32640;DHT22;19049;52.524;11.468;2023-11-18T08:37:07;7.40;99.90
32640;DHT22;19049;52.524;11.468;2023-11-18T08:39:32;7.60;99.90
32640;DHT22;19049;52.524;11.468;2023-11-18T08:41:58;7.80;99.90
32640;DHT22;19049;52.524;11.468;2023-11-18T08:44:24;8.00;99.90
32640;DHT22;19049;52.524;11.468;2023-11-18T08:46:51;8.20;99.90
32640;DHT22;19049;52.524;11.468;2023-11-18T08:49:18;8.50;99.90
32640;DHT22;19049;52.524;11.468;2023-11-18T08:51:50;8.60;99.90
32640;DHT22;19049;52.524;11.468;2023-11-18T08:54:21;8.80;99.90
32640;DHT22;19049;52.524;11.468;2023-11-18T08:57:04;9.00;99.90
32640;DHT22;19049;52.524;11.468;2023-11-18T08:59:40;9.20;99.90
32640;DHT22;19049;52.524;11.468;2023-11-18T09:02:07;9.40;99.90
32640;DHT22;19049;52.524;11.468;2023-11-18T09:04:33;9.60;99.90
32640;DHT22;19049;52.524;11.468;2023-11-18T09:06:59;9.80;99.90
32640;DHT22;19049;52.524;11.468;2023-11-18T09:09:25;10.00;99.90
32640;DHT22;19049;52.524;11.468;2023-11-18T09:11:55;10.30;99.90
32640;DHT22;19049;52.524;11.468;2023-11-18T09:14:25;10.60;99.90
32640;DHT22;19049;52.524;11.468;2023-11-18T09:16:52;10.90;99.90
32640;DHT22;19049;52.524;11.468;2023-11-18T09:19:20;11.20;99.90
32640;DHT22;19049;52.524;11.468;2023-11-18T09:21:47;11.40;99.90
32640;DHT22;19049;52.524;11.468;2023-11-18T09:24:14;11.60;99.90
32640;DHT22;19049;52.524;11.468;2023-11-18T09:26:41;11.80;99.90
32640;DHT22;19049;52.524;11.468;2023-11-18T09:29:09;11.90;99.90
32640;DHT22;19049;52.524;11.468;2023-11-18T09:31:36;11.90;99.90
32640;DHT22;19049;52.524;11.468;2023-11-18T09:34:03;12.00;99.90
32640;DHT22;19049;52.524;11.468;2023-11-18T09:36:32;12.00;99.90
32640;DHT22;19049;52.524;11.468;2023-11-18T09:38:59;12.10;99.90
32640;DHT22;19049;52.524;11.468;2023-11-18T09:41:25;12.20;99.90
32640;DHT22;19049;52.524;11.468;2023-11-18T09:43:53;12.30;99.90
32640;DHT22;19049;52.524;11.468;2023-11-18T09:46:28;12.30;99.90
32640;DHT22;19049;52.524;11.468;2023-11-18T09:49:22;12.50;99.90
32640;DHT22;19049;52.524;11.468;2023-11-18T09:51:59;12.50;99.90
32640;DHT22;19049;52.524;11.468;2023-11-18T09:59:48;12.40;99.90
32640;DHT22;19049;52.524;11.468;2023-11-18T10:02:22;12.40;99.90
32640;DHT22;19049;52.524;11.468;2023-11-18T10:04:49;12.30;99.90
32640;DHT22;19049;52.524;11.468;2023-11-18T10:07:17;12.30;99.90
32640;DHT22;19049;52.524;11.468;2023-11-18T10:09:45;12.20;99.90
32640;DHT22;19049;52.524;11.468;2023-11-18T10:12:11;12.10;99.90
32640;DHT22;19049;52.524;11.468;2023-11-18T10:14:42;12.00;99.90
32640;DHT22;19049;52.524;11.468;2023-11-18T10:17:11;11.90;99.90
32640;DHT22;19049;52.524;11.468;2023-11-18T10:19:57;11.80;99.90
32640;DHT22;19049;52.524;11.468;2023-11-18T10:22:26;11.70;99.90
32640;DHT22;19049;52.524;11.468;2023-11-18T10:24:53;11.70;99.90
32640;DHT22;19049;52.524;11.468;2023-11-18T10:27:26;11.50;99.90
32640;DHT22;19049;52.524;11.468;2023-11-18T10:30:02;11.50;99.90
32640;DHT22;19049;52.524;11.468;2023-11-18T10:32:28;11.40;99.90
32640;DHT22;19049;52.524;11.468;2023-11-18T10:34:57;11.30;99.90
32640;DHT22;19049;52.524;11.468;2023-11-18T10:37:26;11.30;99.90
32640;DHT22;19049;52.524;11.468;2023-11-18T10:39:56;11.20;99.90
32640;DHT22;19049;52.524;11.468;2023-11-18T10:42:26;11.20;99.90
32640;DHT22;19049;52.524;11.468;2023-11-18T10:44:59;11.10;99.90
32640;DHT22;19049;52.524;11.468;2023-11-18T10:47:28;11.10;99.90
32640;DHT22;19049;52.524;11.468;2023-11-18T10:49:57;11.10;99.90
32640;DHT22;19049;52.524;11.468;2023-11-18T10:52:27;11.10;99.90
32640;DHT22;19049;52.524;11.468;2023-11-18T10:55:00;11.10;99.90
32640;DHT22;19049;52.524;11.468;2023-11-18T10:57:32;11.10;99.90
32640;DHT22;19049;52.524;11.468;2023-11-18T11:00:01;11.10;99.90
32640;DHT22;19049;52.524;11.468;2023-11-18T11:02:32;11.10;99.90
32640;DHT22;19049;52.524;11.468;2023-11-18T11:05:05;11.10;99.90
32640;DHT22;19049;52.524;11.468;2023-11-18T11:07:32;11.20;99.90
32640;DHT22;19049;52.524;11.468;2023-11-18T11:10:01;11.30;99.90
32640;DHT22;19049;52.524;11.468;2023-11-18T11:15:31;11.30;99.90
32640;DHT22;19049;52.524;11.468;2023-11-18T11:18:08;11.40;99.90
32640;DHT22;19049;52.524;11.468;2023-11-18T11:20:41;11.60;99.90
32640;DHT22;19049;52.524;11.468;2023-11-18T11:26:02;12.00;98.70
32640;DHT22;19049;52.524;11.468;2023-11-18T11:28:40;12.10;98.60
32640;DHT22;19049;52.524;11.468;2023-11-18T11:31:21;12.30;98.30
32640;DHT22;19049;52.524;11.468;2023-11-18T11:33:59;12.50;96.60
32640;DHT22;19049;52.524;11.468;2023-11-18T11:36:37;12.50;97.50
32640;DHT22;19049;52.524;11.468;2023-11-18T11:39:08;12.70;97.10
32640;DHT22;19049;52.524;11.468;2023-11-18T11:42:00;12.70;96.80
32640;DHT22;19049;52.524;11.468;2023-11-18T11:44:27;12.90;96.50
32640;DHT22;19049;52.524;11.468;2023-11-18T11:46:58;13.00;95.40
32640;DHT22;19049;52.524;11.468;2023-11-18T11:49:27;13.10;95.70
32640;DHT22;19049;52.524;11.468;2023-11-18T11:54:56;13.20;95.70
32640;DHT22;19049;52.524;11.468;2023-11-18T11:57:24;13.30;96.10
32640;DHT22;19049;52.524;11.468;2023-11-18T12:02:22;13.50;95.40
32640;DHT22;19049;52.524;11.468;2023-11-18T12:04:53;13.60;94.80
32640;DHT22;19049;52.524;11.468;2023-11-18T12:07:21;13.80;94.80
32640;DHT22;19049;52.524;11.468;2023-11-18T12:09:49;13.90;94.80
32640;DHT22;19049;52.524;11.468;2023-11-18T12:12:20;14.00;94.60
32640;DHT22;19049;52.524;11.468;2023-11-18T12:15:05;14.10;94.30
32640;DHT22;19049;52.524;11.468;2023-11-18T12:20:41;14.40;92.80
32640;DHT22;19049;52.524;11.468;2023-11-18T12:23:08;14.30;93.00
32640;DHT22;19049;52.524;11.468;2023-11-18T12:25:40;14.20;93.00
32640;DHT22;19049;52.524;11.468;2023-11-18T12:28:10;14.10;91.60
32640;DHT22;19049;52.524;11.468;2023-11-18T12:30:41;14.10;92.20
32640;DHT22;19049;52.524;11.468;2023-11-18T12:33:20;14.10;92.40
32640;DHT22;19049;52.524;11.468;2023-11-18T12:46:54;14.10;92.00
32640;DHT22;19049;52.524;11.468;2023-11-18T12:49:24;13.80;91.20
32640;DHT22;19049;52.524;11.468;2023-11-18T12:51:54;13.60;91.00
32640;DHT22;19049;52.524;11.468;2023-11-18T12:54:28;13.30;91.70
32640;DHT22;19049;52.524;11.468;2023-11-18T12:56:56;12.90;91.50
32640;DHT22;19049;52.524;11.468;2023-11-18T12:59:21;12.50;91.70
32640;DHT22;19049;52.524;11.468;2023-11-18T13:01:49;12.20;91.40
32640;DHT22;19049;52.524;11.468;2023-11-18T13:04:22;12.00;92.50
32640;DHT22;19049;52.524;11.468;2023-11-18T13:06:53;11.60;92.70
32640;DHT22;19049;52.524;11.468;2023-11-18T13:09:21;11.40;93.10
32640;DHT22;19049;52.524;11.468;2023-11-18T13:11:55;11.20;93.40
32640;DHT22;19049;52.524;11.468;2023-11-18T13:14:25;11.00;93.60
32640;DHT22;19049;52.524;11.468;2023-11-18T13:16:55;10.80;94.10
32640;DHT22;19049;52.524;11.468;2023-11-18T13:19:28;10.60;94.40
32640;DHT22;19049;52.524;11.468;2023-11-18T13:21:58;10.40;94.60
32640;DHT22;19049;52.524;11.468;2023-11-18T13:24:27;10.30;94.90
32640;DHT22;19049;52.524;11.468;2023-11-18T13:26:55;10.20;95.20
32640;DHT22;19049;52.524;11.468;2023-11-18T13:29:22;10.10;95.40
32640;DHT22;19049;52.524;11.468;2023-11-18T13:31:50;10.00;95.60
32640;DHT22;19049;52.524;11.468;2023-11-18T13:34:18;9.90;95.80
32640;DHT22;19049;52.524;11.468;2023-11-18T13:36:44;9.80;96.00
32640;DHT22;19049;52.524;11.468;2023-11-18T13:39:19;9.70;96.20
32640;DHT22;19049;52.524;11.468;2023-11-18T13:41:49;9.60;96.30
32640;DHT22;19049;52.524;11.468;2023-11-18T13:44:34;9.50;96.40
32640;DHT22;19049;52.524;11.468;2023-11-18T13:47:01;9.50;96.70
32640;DHT22;19049;52.524;11.468;2023-11-18T13:49:31;9.40;96.80
32640;DHT22;19049;52.524;11.468;2023-11-18T13:51:58;9.40;97.00
32640;DHT22;19049;52.524;11.468;2023-11-18T13:54:27;9.30;97.10
32640;DHT22;19049;52.524;11.468;2023-11-18T13:56:54;9.30;97.20
32640;DHT22;19049;52.524;11.468;2023-11-18T13:59:24;9.20;97.40
32640;DHT22;19049;52.524;11.468;2023-11-18T14:01:55;9.20;97.60
32640;DHT22;19049;52.524;11.468;2023-11-18T14:04:30;9.10;97.70
32640;DHT22;19049;52.524;11.468;2023-11-18T14:07:00;9.10;97.80
32640;DHT22;19049;52.524;11.468;2023-11-18T14:09:29;9.10;97.90
32640;DHT22;19049;52.524;11.468;2023-11-18T14:11:57;9.10;98.00
32640;DHT22;19049;52.524;11.468;2023-11-18T14:14:23;9.00;98.00
32640;DHT22;19049;52.524;11.468;2023-11-18T14:16:50;9.00;98.10
32640;DHT22;19049;52.524;11.468;2023-11-18T14:19:18;9.00;98.20
32640;DHT22;19049;52.524;11.468;2023-11-18T14:21:44;8.90;98.20
32640;DHT22;19049;52.524;11.468;2023-11-18T14:24:10;8.90;98.30
32640;DHT22;19049;52.524;11.468;2023-11-18T14:26:37;8.80;98.30
32640;DHT22;19049;52.524;11.468;2023-11-18T14:29:05;8.80;98.40
32640;DHT22;19049;52.524;11.468;2023-11-18T14:31:32;8.70;98.50
32640;DHT22;19049;52.524;11.468;2023-11-18T14:33:59;8.60;98.50
32640;DHT22;19049;52.524;11.468;2023-11-18T14:36:28;8.50;98.60
32640;DHT22;19049;52.524;11.468;2023-11-18T14:38:54;8.50;98.70
32640;DHT22;19049;52.524;11.468;2023-11-18T14:41:20;8.40;98.80
32640;DHT22;19049;52.524;11.468;2023-11-18T14:43:50;8.40;99.00
32640;DHT22;19049;52.524;11.468;2023-11-18T14:46:16;8.30;99.00
32640;DHT22;19049;52.524;11.468;2023-11-18T14:48:42;8.30;99.10
32640;DHT22;19049;52.524;11.468;2023-11-18T14:51:08;8.20;99.20
32640;DHT22;19049;52.524;11.468;2023-11-18T14:53:33;8.20;99.30
32640;DHT22;19049;52.524;11.468;2023-11-18T14:56:00;8.10;99.40
32640;DHT22;19049;52.524;11.468;2023-11-18T14:58:26;8.10;99.50
32640;DHT22;19049;52.524;11.468;2023-11-18T15:00:51;8.10;99.50
32640;DHT22;19049;52.524;11.468;2023-11-18T15:03:22;8.00;99.60
32640;DHT22;19049;52.524;11.468;2023-11-18T15:05:48;8.00;99.70
32640;DHT22;19049;52.524;11.468;2023-11-18T15:08:13;7.90;99.80
32640;DHT22;19049;52.524;11.468;2023-11-18T15:10:41;7.90;99.80
32640;DHT22;19049;52.524;11.468;2023-11-18T15:13:10;7.90;99.90
32640;DHT22;19049;52.524;11.468;2023-11-18T15:15:41;7.80;99.90
32640;DHT22;19049;52.524;11.468;2023-11-18T15:18:07;7.80;99.90
32640;DHT22;19049;52.524;11.468;2023-11-18T15:20:35;7.80;99.90
32640;DHT22;19049;52.524;11.468;2023-11-18T15:23:04;7.80;99.90
32640;DHT22;19049;52.524;11.468;2023-11-18T15:25:30;7.70;99.90
32640;DHT22;19049;52.524;11.468;2023-11-18T15:27:55;7.70;99.90
32640;DHT22;19049;52.524;11.468;2023-11-18T15:30:22;7.70;99.90
32640;DHT22;19049;52.524;11.468;2023-11-18T15:32:50;7.70;99.90
32640;DHT22;19049;52.524;11.468;2023-11-18T15:35:17;7.60;99.90
32640;DHT22;19049;52.524;11.468;2023-11-18T15:37:44;7.60;99.90
32640;DHT22;19049;52.524;11.468;2023-11-18T15:40:14;7.60;99.90
32640;DHT22;19049;52.524;11.468;2023-11-18T15:42:41;7.60;99.90
32640;DHT22;19049;52.524;11.468;2023-11-18T15:45:11;7.60;99.90
32640;DHT22;19049;52.524;11.468;2023-11-18T15:47:41;7.60;99.90
32640;DHT22;19049;52.524;11.468;2023-11-18T15:50:12;7.60;99.90
32640;DHT22;19049;52.524;11.468;2023-11-18T15:52:38;7.50;99.90
32640;DHT22;19049;52.524;11.468;2023-11-18T15:55:05;7.50;99.90
32640;DHT22;19049;52.524;11.468;2023-11-18T15:57:39;7.50;99.90
32640;DHT22;19049;52.524;11.468;2023-11-18T16:00:07;7.50;99.90
32640;DHT22;19049;52.524;11.468;2023-11-18T16:02:40;7.50;99.90
32640;DHT22;19049;52.524;11.468;2023-11-18T16:05:06;7.50;99.90
32640;DHT22;19049;52.524;11.468;2023-11-18T16:07:32;7.50;99.90
32640;DHT22;19049;52.524;11.468;2023-11-18T16:09:58;7.50;99.90
32640;DHT22;19049;52.524;11.468;2023-11-18T16:12:26;7.50;99.90